^^
Station Historical Data
Daily Summary for January 15, 2018 Units:  Both    English   Metric
« Previous Day
Next Day »
Daily Weekly Monthly Yearly Custom
  High: Low: Average:
Temperature: TemperatureC °F /  -17.8 °C -7.6 °F /  -22 °C -6.8 °F /  -21.6 °C
Dew Point: DewpointC °F /  -17.8 °C -9.3 °F /  -22.9 °C -8.4 °F /  -22.4 °C
Humidity: Humidity% 87% 88%
Wind Speed: WindSpeedKMHmph /  0km/h - 2.5mph /  4km/h
Wind Gust: WindSpeedGustKMHmph /  0km/h - -
Wind- - SSE
Pressure: PressurehPa in /  0 hPa 1018.2 in /  34476.3 hPa -
Precipitation: 0.0 in /  0 mm    
Historical Graphs
 
 
Tabular Data for January 15, 2018
Time Temperature Dew Point Pressure Wind Wind Speed Wind Gust Humidity Rainfall Rate (Hourly) solar Conditions
TemperatureC °F /  -17.8 °C DewpointC °F /  -17.8 °C PressurehPain /  0hPa Calm     Humidity% HourlyPrecipMMin /  0mm SoftwareType W/m2 Conditions
00:01 -6.1 °F /  -21.2 °C -7.6 °F /  -22 °C 1035.1in /  35048.5hPa SSW 6.8mph /  10.9km/h 13.0mph /  20.9km/h 89% 0.0in /  0mm WeatherDisplay:10.37 W/m2 FEW
00:09 -6.2 °F /  -21.2 °C -7.7 °F /  -22.1 °C 1035.1in /  35048.5hPa ESE 1.9mph /  3.1km/h 11.1mph /  17.9km/h 89% 0.0in /  0mm WeatherDisplay:10.37 W/m2 FEW
00:14 -6.2 °F /  -21.2 °C -7.9 °F /  -22.2 °C 1035.1in /  35048.5hPa ESE 4.7mph /  7.6km/h 11.3mph /  18.2km/h 88% 0.0in /  0mm WeatherDisplay:10.37 W/m2 FEW
00:21 -6.2 °F /  -21.2 °C -7.7 °F /  -22.1 °C 1035.1in /  35048.5hPa SE 0.3mph /  0.5km/h 5.6mph /  9km/h 89% 0.0in /  0mm WeatherDisplay:10.37 W/m2 FEW
00:26 -6.3 °F /  -21.3 °C -7.9 °F /  -22.2 °C 1035.1in /  35048.5hPa Calm   3.7mph /  6km/h 88% 0.0in /  0mm WeatherDisplay:10.37 W/m2 FEW
00:38 -6.3 °F /  -21.3 °C -8.0 °F /  -22.2 °C 1035.1in /  35048.5hPa SE 4.2mph /  6.8km/h 5.6mph /  9km/h 88% 0.0in /  0mm WeatherDisplay:10.37 W/m2 FEW
00:43 -6.3 °F /  -21.3 °C -8.0 °F /  -22.2 °C 1035.1in /  35048.5hPa SE 2.7mph /  4.3km/h 9.3mph /  15km/h 88% 0.0in /  0mm WeatherDisplay:10.37 W/m2 FEW
00:53 -6.3 °F /  -21.3 °C -7.8 °F /  -22.1 °C 1035.1in /  35048.5hPa South 6.1mph /  9.8km/h 6.4mph /  10.3km/h 89% 0.0in /  0mm WeatherDisplay:10.37 W/m2 FEW
00:58 -6.4 °F /  -21.3 °C -7.9 °F /  -22.2 °C 1035.1in /  35048.5hPa SSE 1.0mph /  1.6km/h 5.6mph /  9km/h 89% 0.0in /  0mm WeatherDisplay:10.37 W/m2 FEW
01:08 -6.4 °F /  -21.3 °C -7.9 °F /  -22.2 °C 1034.8in /  35038.3hPa SE 2.6mph /  4.2km/h 5.6mph /  9km/h 89% 0.0in /  0mm WeatherDisplay:10.37 W/m2 FEW
01:13 -6.4 °F /  -21.3 °C -7.9 °F /  -22.2 °C 1034.8in /  35038.3hPa ESE 0.3mph /  0.5km/h 4.8mph /  7.7km/h 89% 0.0in /  0mm WeatherDisplay:10.37 W/m2 FEW
01:19 -6.4 °F /  -21.3 °C -7.9 °F /  -22.2 °C 1034.8in /  35038.3hPa SSE 3.9mph /  6.3km/h 6.4mph /  10.3km/h 89% 0.0in /  0mm WeatherDisplay:10.37 W/m2 FEW
01:27 -6.4 °F /  -21.3 °C -7.9 °F /  -22.2 °C 1034.4in /  35024.8hPa SE 4.3mph /  6.9km/h 9.3mph /  15km/h 89% 0.0in /  0mm WeatherDisplay:10.37 W/m2 FEW
01:34 -6.4 °F /  -21.3 °C -7.9 °F /  -22.2 °C 1034.4in /  35024.8hPa SE 3.1mph /  5km/h 7.4mph /  11.9km/h 89% 0.0in /  0mm WeatherDisplay:10.37 W/m2 FEW
01:45 -6.5 °F /  -21.4 °C -8.0 °F /  -22.2 °C 1034.4in /  35024.8hPa SSE 4.8mph /  7.7km/h 11.1mph /  17.9km/h 89% 0.0in /  0mm WeatherDisplay:10.37 W/m2 FEW
01:53 -6.5 °F /  -21.4 °C -8.2 °F /  -22.3 °C 1034.4in /  35024.8hPa ESE 4.3mph /  6.9km/h 4.8mph /  7.7km/h 88% 0.0in /  0mm WeatherDisplay:10.37 W/m2 FEW
02:00 -6.6 °F /  -21.4 °C -8.2 °F /  -22.3 °C 1034.4in /  35024.8hPa South 2.7mph /  4.3km/h 9.3mph /  15km/h 88% 0.0in /  0mm WeatherDisplay:10.37 W/m2 FEW
02:05 -6.6 °F /  -21.4 °C -8.2 °F /  -22.3 °C 1034.4in /  35024.8hPa Calm   3.7mph /  6km/h 88% 0.0in /  0mm WeatherDisplay:10.37 W/m2 FEW
02:10 -6.5 °F /  -21.4 °C -8.0 °F /  -22.2 °C 1034.4in /  35024.8hPa WSW 0.5mph /  0.8km/h 9.3mph /  15km/h 89% 0.0in /  0mm WeatherDisplay:10.37 W/m2 FEW
02:17 -6.5 °F /  -21.4 °C -8.2 °F /  -22.3 °C 1034.4in /  35024.8hPa ESE 0.6mph /  1km/h 5.6mph /  9km/h 88% 0.0in /  0mm WeatherDisplay:10.37 W/m2 FEW
02:22 -6.5 °F /  -21.4 °C -8.2 °F /  -22.3 °C 1034.4in /  35024.8hPa Calm     88% 0.0in /  0mm WeatherDisplay:10.37 W/m2 FEW
02:27 -6.5 °F /  -21.4 °C -8.2 °F /  -22.3 °C 1034.4in /  35024.8hPa Calm     88% 0.0in /  0mm WeatherDisplay:10.37 W/m2 FEW
02:32 -6.5 °F /  -21.4 °C -8.0 °F /  -22.2 °C 1034.1in /  35014.6hPa ESE 1.1mph /  1.8km/h 5.6mph /  9km/h 89% 0.0in /  0mm WeatherDisplay:10.37 W/m2 FEW
02:37 -6.4 °F /  -21.3 °C -7.9 °F /  -22.2 °C 1034.1in /  35014.6hPa ESE 0.6mph /  1km/h 5.6mph /  9km/h 89% 0.0in /  0mm WeatherDisplay:10.37 W/m2 FEW
02:42 -6.4 °F /  -21.3 °C -7.9 °F /  -22.2 °C 1034.1in /  35014.6hPa SSE 3.2mph /  5.1km/h 13.0mph /  20.9km/h 89% 0.0in /  0mm WeatherDisplay:10.37 W/m2 FEW
02:47 -6.4 °F /  -21.3 °C -7.9 °F /  -22.2 °C 1034.1in /  35014.6hPa Calm   9.3mph /  15km/h 89% 0.0in /  0mm WeatherDisplay:10.37 W/m2 FEW
02:52 -6.4 °F /  -21.3 °C -8.1 °F /  -22.3 °C 1034.1in /  35014.6hPa SSE 7.4mph /  11.9km/h 9.7mph /  15.6km/h 88% 0.0in /  0mm WeatherDisplay:10.37 W/m2 FEW
02:57 -6.4 °F /  -21.3 °C -8.1 °F /  -22.3 °C 1034.1in /  35014.6hPa ESE 3.5mph /  5.6km/h 6.4mph /  10.3km/h 88% 0.0in /  0mm WeatherDisplay:10.37 W/m2 FEW
03:06 -6.5 °F /  -21.4 °C -8.2 °F /  -22.3 °C 1033.7in /  35001.1hPa South 2.7mph /  4.3km/h 8.0mph /  12.9km/h 88% 0.0in /  0mm WeatherDisplay:10.37 W/m2 FEW
03:18 -6.5 °F /  -21.4 °C -8.2 °F /  -22.3 °C 1033.7in /  35001.1hPa South 0.3mph /  0.5km/h 1.6mph /  2.6km/h 88% 0.0in /  0mm WeatherDisplay:10.37 W/m2 FEW
03:24 -6.4 °F /  -21.3 °C -7.9 °F /  -22.2 °C 1033.7in /  35001.1hPa South 1.6mph /  2.6km/h 4.8mph /  7.7km/h 89% 0.0in /  0mm WeatherDisplay:10.37 W/m2 FEW
03:29 -6.4 °F /  -21.3 °C -7.9 °F /  -22.2 °C 1033.7in /  35001.1hPa SSE 1.8mph /  2.9km/h 8.0mph /  12.9km/h 89% 0.0in /  0mm WeatherDisplay:10.37 W/m2 FEW
03:34 -6.4 °F /  -21.3 °C -8.1 °F /  -22.3 °C 1033.7in /  35001.1hPa South 1.4mph /  2.3km/h 5.6mph /  9km/h 88% 0.0in /  0mm WeatherDisplay:10.37 W/m2 FEW
03:40 -6.5 °F /  -21.4 °C -8.2 °F /  -22.3 °C 1033.7in /  35001.1hPa Calm     88% 0.0in /  0mm WeatherDisplay:10.37 W/m2 FEW
03:45 -6.5 °F /  -21.4 °C -8.2 °F /  -22.3 °C 1033.7in /  35001.1hPa SSE 4.2mph /  6.8km/h 11.1mph /  17.9km/h 88% 0.0in /  0mm WeatherDisplay:10.37 W/m2 FEW
03:50 -6.5 °F /  -21.4 °C -8.2 °F /  -22.3 °C 1033.7in /  35001.1hPa Calm     88% 0.0in /  0mm WeatherDisplay:10.37 W/m2 FEW
03:55 -6.6 °F /  -21.4 °C -8.2 °F /  -22.3 °C 1033.7in /  35001.1hPa SE 0.6mph /  1km/h 7.4mph /  11.9km/h 88% 0.0in /  0mm WeatherDisplay:10.37 W/m2 FEW
04:00 -6.5 °F /  -21.4 °C -8.2 °F /  -22.3 °C 1033.4in /  34990.9hPa SSW 1.1mph /  1.8km/h 3.7mph /  6km/h 88% 0.0in /  0mm WeatherDisplay:10.37 W/m2 FEW
04:05 -6.5 °F /  -21.4 °C -8.2 °F /  -22.3 °C 1033.4in /  34990.9hPa SSE 1.3mph /  2.1km/h 9.3mph /  15km/h 88% 0.0in /  0mm WeatherDisplay:10.37 W/m2 FEW
04:10 -6.5 °F /  -21.4 °C -8.2 °F /  -22.3 °C 1033.4in /  34990.9hPa South 5.0mph /  8km/h 7.4mph /  11.9km/h 88% 0.0in /  0mm WeatherDisplay:10.37 W/m2 FEW
04:15 -6.6 °F /  -21.4 °C -8.2 °F /  -22.3 °C 1033.4in /  34990.9hPa SE 2.3mph /  3.7km/h 5.6mph /  9km/h 88% 0.0in /  0mm WeatherDisplay:10.37 W/m2 FEW
04:22 -6.6 °F /  -21.4 °C -8.2 °F /  -22.3 °C 1033.4in /  34990.9hPa SSE 1.1mph /  1.8km/h 9.3mph /  15km/h 88% 0.0in /  0mm WeatherDisplay:10.37 W/m2 FEW
04:27 -6.6 °F /  -21.4 °C -8.2 °F /  -22.3 °C 1033.4in /  34990.9hPa South 2.4mph /  3.9km/h 7.4mph /  11.9km/h 88% 0.0in /  0mm WeatherDisplay:10.37 W/m2 FEW
04:32 -6.6 °F /  -21.4 °C -8.2 °F /  -22.3 °C 1033.1in /  34980.8hPa SSE 3.4mph /  5.5km/h 5.6mph /  9km/h 88% 0.0in /  0mm WeatherDisplay:10.37 W/m2 FEW
04:40 -6.6 °F /  -21.4 °C -8.2 °F /  -22.3 °C 1033.1in /  34980.8hPa Calm   5.6mph /  9km/h 88% 0.0in /  0mm WeatherDisplay:10.37 W/m2 FEW
04:45 -6.6 °F /  -21.4 °C -8.2 °F /  -22.3 °C 1033.1in /  34980.8hPa Calm     88% 0.0in /  0mm WeatherDisplay:10.37 W/m2 FEW
04:50 -6.5 °F /  -21.4 °C -8.2 °F /  -22.3 °C 1033.1in /  34980.8hPa SSE 1.4mph /  2.3km/h 5.6mph /  9km/h 88% 0.0in /  0mm WeatherDisplay:10.37 W/m2 FEW
04:55 -6.5 °F /  -21.4 °C -8.2 °F /  -22.3 °C 1033.1in /  34980.8hPa Calm     88% 0.0in /  0mm WeatherDisplay:10.37 W/m2 FEW
05:00 -6.5 °F /  -21.4 °C -8.2 °F /  -22.3 °C 1032.7in /  34967.2hPa Calm     88% 0.0in /  0mm WeatherDisplay:10.37 W/m2 FEW
05:05 -6.5 °F /  -21.4 °C -8.0 °F /  -22.2 °C 1032.7in /  34967.2hPa SE 2.1mph /  3.4km/h 7.4mph /  11.9km/h 89% 0.0in /  0mm WeatherDisplay:10.37 W/m2 FEW
05:20 -6.6 °F /  -21.4 °C -8.2 °F /  -22.3 °C 1032.4in /  34957.1hPa Calm     88% 0.0in /  0mm WeatherDisplay:10.37 W/m2 FEW
05:25 -6.6 °F /  -21.4 °C -8.1 °F /  -22.3 °C 1032.4in /  34957.1hPa Calm   3.2mph /  5.1km/h 89% 0.0in /  0mm WeatherDisplay:10.37 W/m2 FEW
05:35 -6.6 °F /  -21.4 °C -8.1 °F /  -22.3 °C 1032.4in /  34957.1hPa SSE 1.1mph /  1.8km/h 5.6mph /  9km/h 89% 0.0in /  0mm WeatherDisplay:10.37 W/m2 FEW
05:40 -6.6 °F /  -21.4 °C -8.1 °F /  -22.3 °C 1032.1in /  34946.9hPa ESE 1.1mph /  1.8km/h 3.7mph /  6km/h 89% 0.0in /  0mm WeatherDisplay:10.37 W/m2 FEW
05:46 -6.5 °F /  -21.4 °C -8.0 °F /  -22.2 °C 1032.1in /  34946.9hPa East 2.3mph /  3.7km/h 5.6mph /  9km/h 89% 0.0in /  0mm WeatherDisplay:10.37 W/m2 FEW
05:52 -6.5 °F /  -21.4 °C -8.0 °F /  -22.2 °C 1032.1in /  34946.9hPa SE 3.7mph /  6km/h 11.1mph /  17.9km/h 89% 0.0in /  0mm WeatherDisplay:10.37 W/m2 FEW
06:00 -6.6 °F /  -21.4 °C -8.1 °F /  -22.3 °C 1031.7in /  34933.4hPa East 0.6mph /  1km/h 5.6mph /  9km/h 89% 0.0in /  0mm WeatherDisplay:10.37 W/m2 FEW
06:05 -6.6 °F /  -21.4 °C -8.1 °F /  -22.3 °C 1031.7in /  34933.4hPa Calm   5.6mph /  9km/h 89% 0.0in /  0mm WeatherDisplay:10.37 W/m2 FEW
06:15 -6.5 °F /  -21.4 °C -8.0 °F /  -22.2 °C 1031.7in /  34933.4hPa Calm     89% 0.0in /  0mm WeatherDisplay:10.37 W/m2 FEW
06:20 -6.4 °F /  -21.3 °C -7.9 °F /  -22.2 °C 1031.7in /  34933.4hPa Calm   3.7mph /  6km/h 89% 0.0in /  0mm WeatherDisplay:10.37 W/m2 FEW
06:25 -6.4 °F /  -21.3 °C -7.9 °F /  -22.2 °C 1031.7in /  34933.4hPa ESE 1.9mph /  3.1km/h 5.6mph /  9km/h 89% 0.0in /  0mm WeatherDisplay:10.37 W/m2 FEW
06:30 -6.4 °F /  -21.3 °C -7.9 °F /  -22.2 °C 1031.7in /  34933.4hPa ESE 5.1mph /  8.2km/h 5.6mph /  9km/h 89% 0.0in /  0mm WeatherDisplay:10.37 W/m2 FEW
06:35 -6.4 °F /  -21.3 °C -7.9 °F /  -22.2 °C 1031.7in /  34933.4hPa ESE 3.1mph /  5km/h 5.6mph /  9km/h 89% 0.0in /  0mm WeatherDisplay:10.37 W/m2 FEW
06:40 -6.4 °F /  -21.3 °C -7.9 °F /  -22.2 °C 1031.7in /  34933.4hPa SE 3.9mph /  6.3km/h 8.0mph /  12.9km/h 89% 0.0in /  0mm WeatherDisplay:10.37 W/m2 FEW
06:45 -6.4 °F /  -21.3 °C -7.9 °F /  -22.2 °C 1031.7in /  34933.4hPa SE 3.1mph /  5km/h 5.6mph /  9km/h 89% 0.0in /  0mm WeatherDisplay:10.37 W/m2 FEW
06:50 -6.3 °F /  -21.3 °C -7.8 °F /  -22.1 °C 1031.4in /  34923.2hPa SSE 1.9mph /  3.1km/h 5.6mph /  9km/h 89% 0.0in /  0mm WeatherDisplay:10.37 W/m2 FEW
06:55 -6.3 °F /  -21.3 °C -7.8 °F /  -22.1 °C 1031.4in /  34923.2hPa South 3.5mph /  5.6km/h 7.4mph /  11.9km/h 89% 0.0in /  0mm WeatherDisplay:10.37 W/m2 FEW
07:00 -6.2 °F /  -21.2 °C -7.7 °F /  -22.1 °C 1031.4in /  34923.2hPa SE 1.3mph /  2.1km/h 11.1mph /  17.9km/h 89% 0.0in /  0mm WeatherDisplay:10.37 W/m2 FEW
07:07 -6.2 °F /  -21.2 °C -7.7 °F /  -22.1 °C 1031.0in /  34909.7hPa SE 3.2mph /  5.1km/h 13.0mph /  20.9km/h 89% 0.0in /  0mm WeatherDisplay:10.37 W/m2 FEW
07:12 -6.1 °F /  -21.2 °C -7.6 °F /  -22 °C 1031.0in /  34909.7hPa ESE 1.1mph /  1.8km/h 5.6mph /  9km/h 89% 0.0in /  0mm WeatherDisplay:10.37 W/m2 FEW
07:18 -6.1 °F /  -21.2 °C -7.6 °F /  -22 °C 1031.0in /  34909.7hPa Calm   3.7mph /  6km/h 89% 0.0in /  0mm WeatherDisplay:10.37 W/m2 FEW
07:25 -6.0 °F /  -21.1 °C -7.5 °F /  -21.9 °C 1031.0in /  34909.7hPa Calm   1.9mph /  3.1km/h 89% 0.0in /  0mm WeatherDisplay:10.37 W/m2 FEW
07:30 -5.9 °F /  -21.1 °C -7.4 °F /  -21.9 °C 1031.0in /  34909.7hPa SE 4.3mph /  6.9km/h 9.3mph /  15km/h 89% 0.0in /  0mm WeatherDisplay:10.37 W/m2 FEW
07:35 -5.9 °F /  -21.1 °C -7.4 °F /  -21.9 °C 1031.0in /  34909.7hPa ESE 2.6mph /  4.2km/h 9.3mph /  15km/h 89% 0.0in /  0mm WeatherDisplay:10.37 W/m2 FEW
07:44 -5.8 °F /  -21 °C -7.3 °F /  -21.8 °C 1031.0in /  34909.7hPa SSW 4.2mph /  6.8km/h 13.0mph /  20.9km/h 89% 0.0in /  0mm WeatherDisplay:10.37 W/m2 FEW
07:49 -5.8 °F /  -21 °C -7.3 °F /  -21.8 °C 1030.7in /  34899.5hPa SE 0.6mph /  1km/h 8.0mph /  12.9km/h 89% 0.0in /  0mm WeatherDisplay:10.37 W/m2 FEW
07:54 -5.8 °F /  -21 °C -7.3 °F /  -21.8 °C 1030.7in /  34899.5hPa Calm   9.3mph /  15km/h 89% 0.0in /  0mm WeatherDisplay:10.37 W/m2 FEW
08:00 -5.8 °F /  -21 °C -7.3 °F /  -21.8 °C 1030.7in /  34899.5hPa ESE 0.3mph /  0.5km/h 5.6mph /  9km/h 89% 0.0in /  0mm WeatherDisplay:10.37 W/m2 FEW
08:13 -5.7 °F /  -20.9 °C -7.2 °F /  -21.8 °C 1030.4in /  34889.3hPa ESE 2.6mph /  4.2km/h 7.4mph /  11.9km/h 89% 0.0in /  0mm WeatherDisplay:10.37 W/m2 FEW
08:18 -5.7 °F /  -20.9 °C -7.2 °F /  -21.8 °C 1030.4in /  34889.3hPa Calm     89% 0.0in /  0mm WeatherDisplay:10.37 W/m2 FEW
08:28 -5.7 °F /  -20.9 °C -7.2 °F /  -21.8 °C 1030.4in /  34889.3hPa ESE 4.3mph /  6.9km/h 14.5mph /  23.3km/h 89% 0.0in /  0mm WeatherDisplay:10.37 W/m2 FEW
08:33 -5.7 °F /  -20.9 °C -7.2 °F /  -21.8 °C 1030.4in /  34889.3hPa ESE 2.4mph /  3.9km/h 11.1mph /  17.9km/h 89% 0.0in /  0mm WeatherDisplay:10.37 W/m2 FEW
08:38 -5.7 °F /  -20.9 °C -7.2 °F /  -21.8 °C 1030.4in /  34889.3hPa Calm   5.6mph /  9km/h 89% 0.0in /  0mm WeatherDisplay:10.37 W/m2 FEW
08:44 -5.7 °F /  -20.9 °C -7.2 °F /  -21.8 °C 1030.4in /  34889.3hPa South 0.6mph /  1km/h 1.9mph /  3.1km/h 89% 0.0in /  0mm WeatherDisplay:10.37 W/m2 FEW
08:51 -5.7 °F /  -20.9 °C -7.2 °F /  -21.8 °C 1030.4in /  34889.3hPa Calm     89% 0.0in /  0mm WeatherDisplay:10.37 W/m2 FEW
08:56 -5.7 °F /  -20.9 °C -7.4 °F /  -21.9 °C 1030.4in /  34889.3hPa South 2.1mph /  3.4km/h 7.4mph /  11.9km/h 88% 0.0in /  0mm WeatherDisplay:10.37 W/m2 FEW
09:04 -5.8 °F /  -21 °C -7.5 °F /  -21.9 °C 1030.4in /  34889.3hPa South 1.9mph /  3.1km/h 7.4mph /  11.9km/h 88% 0.0in /  0mm WeatherDisplay:10.37 W/m2 FEW
09:09 -5.9 °F /  -21.1 °C -7.6 °F /  -22 °C 1030.4in /  34889.3hPa South 2.3mph /  3.7km/h 7.4mph /  11.9km/h 88% 0.0in /  0mm WeatherDisplay:10.37 W/m2 FEW
09:14 -6.0 °F /  -21.1 °C -7.7 °F /  -22.1 °C 1030.4in /  34889.3hPa SSE 7.6mph /  12.2km/h 14.8mph /  23.8km/h 88% 0.0in /  0mm WeatherDisplay:10.37 W/m2 FEW
09:19 -6.1 °F /  -21.2 °C -7.7 °F /  -22.1 °C 1030.0in /  34875.8hPa South 9.2mph /  14.8km/h 14.8mph /  23.8km/h 88% 0.0in /  0mm WeatherDisplay:10.37 W/m2 FEW
09:24 -6.2 °F /  -21.2 °C -7.8 °F /  -22.1 °C 1030.0in /  34875.8hPa SSE 3.4mph /  5.5km/h 5.6mph /  9km/h 88% 0.0in /  0mm WeatherDisplay:10.37 W/m2 FEW
09:29 -6.2 °F /  -21.2 °C -7.7 °F /  -22.1 °C 1030.0in /  34875.8hPa SE 3.1mph /  5km/h 17.7mph /  28.5km/h 89% 0.0in /  0mm WeatherDisplay:10.37 W/m2 FEW
09:34 -6.3 °F /  -21.3 °C -7.8 °F /  -22.1 °C 1030.4in /  34889.3hPa South 6.6mph /  10.6km/h 16.7mph /  26.9km/h 89% 0.0in /  0mm WeatherDisplay:10.37 W/m2 FEW
09:39 -6.4 °F /  -21.3 °C -7.9 °F /  -22.2 °C 1030.4in /  34889.3hPa SSW 7.1mph /  11.4km/h 13.0mph /  20.9km/h 89% 0.0in /  0mm WeatherDisplay:10.37 W/m2 FEW
09:47 -6.4 °F /  -21.3 °C -7.9 °F /  -22.2 °C 1030.4in /  34889.3hPa SSE 2.9mph /  4.7km/h 6.4mph /  10.3km/h 89% 0.0in /  0mm WeatherDisplay:10.37 W/m2 FEW
09:52 -6.5 °F /  -21.4 °C -8.0 °F /  -22.2 °C 1030.4in /  34889.3hPa South 4.3mph /  6.9km/h 13.0mph /  20.9km/h 89% 0.0in /  0mm WeatherDisplay:10.37 W/m2 FEW
10:02 -6.6 °F /  -21.4 °C -8.3 °F /  -22.4 °C 1030.4in /  34889.3hPa ESE 2.1mph /  3.4km/h 11.1mph /  17.9km/h 88% 0.0in /  0mm WeatherDisplay:10.37 W/m2 FEW
10:16 -6.7 °F /  -21.5 °C -8.3 °F /  -22.4 °C 1030.0in /  34875.8hPa SSE 4.2mph /  6.8km/h 8.0mph /  12.9km/h 88% 0.0in /  0mm WeatherDisplay:10.37 W/m2 FEW
10:21 -6.7 °F /  -21.5 °C -8.4 °F /  -22.4 °C 1030.0in /  34875.8hPa SSE 2.3mph /  3.7km/h 11.1mph /  17.9km/h 88% 0.0in /  0mm WeatherDisplay:10.37 W/m2 FEW
10:36 -6.7 °F /  -21.5 °C -8.2 °F /  -22.3 °C 1030.0in /  34875.8hPa South 0.3mph /  0.5km/h 18.5mph /  29.8km/h 89% 0.0in /  0mm WeatherDisplay:10.37 W/m2 FEW
10:41 -6.7 °F /  -21.5 °C -8.2 °F /  -22.3 °C 1030.0in /  34875.8hPa SSE 0.2mph /  0.3km/h 9.3mph /  15km/h 89% 0.0in /  0mm WeatherDisplay:10.37 W/m2 FEW
10:46 -6.7 °F /  -21.5 °C -8.2 °F /  -22.3 °C 1029.7in /  34865.6hPa Calm     89% 0.0in /  0mm WeatherDisplay:10.37 W/m2 FEW
11:03 -6.7 °F /  -21.5 °C -8.2 °F /  -22.3 °C 1029.7in /  34865.6hPa SSE 3.1mph /  5km/h 14.8mph /  23.8km/h 89% 0.0in /  0mm WeatherDisplay:10.37 W/m2 FEW
11:08 -6.7 °F /  -21.5 °C -8.2 °F /  -22.3 °C 1029.7in /  34865.6hPa South 2.6mph /  4.2km/h 9.3mph /  15km/h 89% 0.0in /  0mm WeatherDisplay:10.37 W/m2 FEW
11:18 -6.8 °F /  -21.6 °C -8.3 °F /  -22.4 °C 1029.7in /  34865.6hPa SSE 5.0mph /  8km/h 14.8mph /  23.8km/h 89% 0.0in /  0mm WeatherDisplay:10.37 W/m2 FEW
11:24 -6.9 °F /  -21.6 °C -8.4 °F /  -22.4 °C 1029.7in /  34865.6hPa ENE 2.4mph /  3.9km/h 5.6mph /  9km/h 89% 0.0in /  0mm WeatherDisplay:10.37 W/m2 FEW
11:29 -6.9 °F /  -21.6 °C -8.4 °F /  -22.4 °C 1029.7in /  34865.6hPa South 2.9mph /  4.7km/h 9.3mph /  15km/h 89% 0.0in /  0mm WeatherDisplay:10.37 W/m2 FEW
11:39 -6.8 °F /  -21.6 °C -8.3 °F /  -22.4 °C 1029.3in /  34852.1hPa SSW 5.0mph /  8km/h 14.8mph /  23.8km/h 89% 0.0in /  0mm WeatherDisplay:10.37 W/m2 FEW
11:44 -6.9 °F /  -21.6 °C -8.4 °F /  -22.4 °C 1029.3in /  34852.1hPa SE 2.3mph /  3.7km/h 5.6mph /  9km/h 89% 0.0in /  0mm WeatherDisplay:10.37 W/m2 FEW
11:49 -6.9 °F /  -21.6 °C -8.4 °F /  -22.4 °C 1029.3in /  34852.1hPa SE 2.6mph /  4.2km/h 12.9mph /  20.8km/h 89% 0.0in /  0mm WeatherDisplay:10.37 W/m2 FEW
11:54 -6.9 °F /  -21.6 °C -8.3 °F /  -22.4 °C 1029.3in /  34852.1hPa SW 3.9mph /  6.3km/h 11.1mph /  17.9km/h 90% 0.0in /  0mm WeatherDisplay:10.37 W/m2 FEW
11:59 -6.9 °F /  -21.6 °C -8.4 °F /  -22.4 °C 1029.3in /  34852.1hPa SSE 2.1mph /  3.4km/h 6.4mph /  10.3km/h 89% 0.0in /  0mm WeatherDisplay:10.37 W/m2 FEW
12:04 -6.9 °F /  -21.6 °C -8.3 °F /  -22.4 °C 1029.3in /  34852.1hPa Calm     90% 0.0in /  0mm WeatherDisplay:10.37 W/m2 FEW
12:09 -6.9 °F /  -21.6 °C -8.3 °F /  -22.4 °C 1029.0in /  34841.9hPa South 3.4mph /  5.5km/h 5.6mph /  9km/h 90% 0.0in /  0mm WeatherDisplay:10.37 W/m2 FEW
12:17 -6.9 °F /  -21.6 °C -8.3 °F /  -22.4 °C 1029.0in /  34841.9hPa SSE 1.8mph /  2.9km/h 11.1mph /  17.9km/h 90% 0.0in /  0mm WeatherDisplay:10.37 W/m2 FEW
12:22 -6.9 °F /  -21.6 °C -8.3 °F /  -22.4 °C 1029.0in /  34841.9hPa SW 1.8mph /  2.9km/h 5.6mph /  9km/h 90% 0.0in /  0mm WeatherDisplay:10.37 W/m2 FEW
12:27 -6.9 °F /  -21.6 °C -8.3 °F /  -22.4 °C 1029.0in /  34841.9hPa SE 6.6mph /  10.6km/h 9.3mph /  15km/h 90% 0.0in /  0mm WeatherDisplay:10.37 W/m2 FEW
12:37 -6.9 °F /  -21.6 °C -8.3 °F /  -22.4 °C 1028.7in /  34831.8hPa SSE 4.8mph /  7.7km/h 14.8mph /  23.8km/h 90% 0.0in /  0mm WeatherDisplay:10.37 W/m2 FEW
12:42 -6.9 °F /  -21.6 °C -8.3 °F /  -22.4 °C 1028.7in /  34831.8hPa Calm   5.6mph /  9km/h 90% 0.0in /  0mm WeatherDisplay:10.37 W/m2 FEW
12:55 -6.9 °F /  -21.6 °C -8.1 °F /  -22.3 °C 1028.7in /  34831.8hPa Calm   3.7mph /  6km/h 91% 0.0in /  0mm WeatherDisplay:10.37 W/m2 FEW
13:01 -6.9 °F /  -21.6 °C -8.1 °F /  -22.3 °C 1028.3in /  34818.2hPa SE 1.6mph /  2.6km/h 6.4mph /  10.3km/h 91% 0.0in /  0mm WeatherDisplay:10.37 W/m2 FEW
13:06 -6.9 °F /  -21.6 °C -8.1 °F /  -22.3 °C 1028.3in /  34818.2hPa SSE 0.6mph /  1km/h 9.3mph /  15km/h 91% 0.0in /  0mm WeatherDisplay:10.37 W/m2 FEW
13:11 -6.8 °F /  -21.6 °C -8.1 °F /  -22.3 °C 1028.3in /  34818.2hPa South 0.6mph /  1km/h 11.1mph /  17.9km/h 91% 0.0in /  0mm WeatherDisplay:10.37 W/m2 FEW
13:16 -6.9 °F /  -21.6 °C -8.1 °F /  -22.3 °C 1028.0in /  34808.1hPa SE 0.6mph /  1km/h 20.4mph /  32.8km/h 91% 0.0in /  0mm WeatherDisplay:10.37 W/m2 FEW
13:21 -6.9 °F /  -21.6 °C -8.1 °F /  -22.3 °C 1028.0in /  34808.1hPa ESE 3.2mph /  5.1km/h 14.8mph /  23.8km/h 91% 0.0in /  0mm WeatherDisplay:10.37 W/m2 FEW
13:28 -6.9 °F /  -21.6 °C -8.1 °F /  -22.3 °C 1028.0in /  34808.1hPa South 1.3mph /  2.1km/h 7.4mph /  11.9km/h 91% 0.0in /  0mm WeatherDisplay:10.37 W/m2 FEW
13:33 -6.9 °F /  -21.6 °C -8.2 °F /  -22.3 °C 1028.0in /  34808.1hPa East 0.2mph /  0.3km/h 5.6mph /  9km/h 91% 0.0in /  0mm WeatherDisplay:10.37 W/m2 FEW
13:42 -7.0 °F /  -21.7 °C -8.2 °F /  -22.3 °C 1027.7in /  34797.9hPa ESE 4.2mph /  6.8km/h 16.7mph /  26.9km/h 91% 0.0in /  0mm WeatherDisplay:10.37 W/m2 FEW
13:47 -7.1 °F /  -21.7 °C -8.4 °F /  -22.4 °C 1027.7in /  34797.9hPa SW 2.7mph /  4.3km/h 11.1mph /  17.9km/h 90% 0.0in /  0mm WeatherDisplay:10.37 W/m2 FEW
13:52 -7.1 °F /  -21.7 °C -8.4 °F /  -22.4 °C 1027.7in /  34797.9hPa SSE 1.0mph /  1.6km/h 6.4mph /  10.3km/h 90% 0.0in /  0mm WeatherDisplay:10.37 W/m2 FEW
14:02 -7.2 °F /  -21.8 °C -8.5 °F /  -22.5 °C 1027.7in /  34797.9hPa South 3.5mph /  5.6km/h 9.3mph /  15km/h 90% 0.0in /  0mm WeatherDisplay:10.37 W/m2 FEW
14:07 -7.2 °F /  -21.8 °C -8.6 °F /  -22.6 °C 1027.7in /  34797.9hPa SE 5.8mph /  9.3km/h 13.0mph /  20.9km/h 90% 0.0in /  0mm WeatherDisplay:10.37 W/m2 FEW
14:12 -7.2 °F /  -21.8 °C -8.7 °F /  -22.6 °C 1027.7in /  34797.9hPa SW 2.4mph /  3.9km/h 5.6mph /  9km/h 89% 0.0in /  0mm WeatherDisplay:10.37 W/m2 FEW
14:21 -7.2 °F /  -21.8 °C -8.7 °F /  -22.6 °C 1027.3in /  34784.4hPa SSE 0.8mph /  1.3km/h 3.7mph /  6km/h 89% 0.0in /  0mm WeatherDisplay:10.37 W/m2 FEW
14:30 -7.2 °F /  -21.8 °C -8.7 °F /  -22.6 °C 1027.0in /  34774.2hPa ESE 1.8mph /  2.9km/h 4.8mph /  7.7km/h 89% 0.0in /  0mm WeatherDisplay:10.37 W/m2 FEW
14:35 -7.2 °F /  -21.8 °C -8.7 °F /  -22.6 °C 1027.0in /  34774.2hPa South 5.5mph /  8.9km/h 13.0mph /  20.9km/h 89% 0.0in /  0mm WeatherDisplay:10.37 W/m2 FEW
14:40 -7.2 °F /  -21.8 °C -8.7 °F /  -22.6 °C 1027.0in /  34774.2hPa SE 0.6mph /  1km/h 5.6mph /  9km/h 89% 0.0in /  0mm WeatherDisplay:10.37 W/m2 FEW
14:45 -7.2 °F /  -21.8 °C -8.7 °F /  -22.6 °C 1027.0in /  34774.2hPa SSE 2.7mph /  4.3km/h 7.4mph /  11.9km/h 89% 0.0in /  0mm WeatherDisplay:10.37 W/m2 FEW
14:53 -7.2 °F /  -21.8 °C -8.7 °F /  -22.6 °C 1027.0in /  34774.2hPa SSE 1.9mph /  3.1km/h 7.4mph /  11.9km/h 89% 0.0in /  0mm WeatherDisplay:10.37 W/m2 FEW
15:03 -7.2 °F /  -21.8 °C -8.7 °F /  -22.6 °C 1026.6in /  34760.7hPa South 1.1mph /  1.8km/h 5.6mph /  9km/h 89% 0.0in /  0mm WeatherDisplay:10.37 W/m2 FEW
15:08 -7.2 °F /  -21.8 °C -8.7 °F /  -22.6 °C 1026.6in /  34760.7hPa Calm     89% 0.0in /  0mm WeatherDisplay:10.37 W/m2 FEW
15:13 -7.1 °F /  -21.7 °C -8.6 °F /  -22.6 °C 1026.6in /  34760.7hPa SSE 1.9mph /  3.1km/h 5.6mph /  9km/h 89% 0.0in /  0mm WeatherDisplay:10.37 W/m2 FEW
15:18 -7.2 °F /  -21.8 °C -8.7 °F /  -22.6 °C 1026.6in /  34760.7hPa SE 0.3mph /  0.5km/h 3.7mph /  6km/h 89% 0.0in /  0mm WeatherDisplay:10.37 W/m2 FEW
15:23 -7.2 °F /  -21.8 °C -8.7 °F /  -22.6 °C 1026.3in /  34750.5hPa SE 5.6mph /  9km/h 9.3mph /  15km/h 89% 0.0in /  0mm WeatherDisplay:10.37 W/m2 FEW
15:28 -7.2 °F /  -21.8 °C -8.7 °F /  -22.6 °C 1026.3in /  34750.5hPa SE 2.4mph /  3.9km/h 7.4mph /  11.9km/h 89% 0.0in /  0mm WeatherDisplay:10.37 W/m2 FEW
15:33 -7.2 °F /  -21.8 °C -8.7 °F /  -22.6 °C 1026.3in /  34750.5hPa SE 4.7mph /  7.6km/h 5.6mph /  9km/h 89% 0.0in /  0mm WeatherDisplay:10.37 W/m2 FEW
15:46 -7.2 °F /  -21.8 °C -8.7 °F /  -22.6 °C 1026.0in /  34740.4hPa SE 4.0mph /  6.4km/h 8.0mph /  12.9km/h 89% 0.0in /  0mm WeatherDisplay:10.37 W/m2 FEW
15:51 -7.3 °F /  -21.8 °C -8.8 °F /  -22.7 °C 1026.0in /  34740.4hPa ESE 5.0mph /  8km/h 9.3mph /  15km/h 89% 0.0in /  0mm WeatherDisplay:10.37 W/m2 FEW
15:56 -7.3 °F /  -21.8 °C -8.8 °F /  -22.7 °C 1026.0in /  34740.4hPa SSE 3.2mph /  5.1km/h 7.4mph /  11.9km/h 89% 0.0in /  0mm WeatherDisplay:10.37 W/m2 FEW
16:04 -7.3 °F /  -21.8 °C -8.8 °F /  -22.7 °C 1026.0in /  34740.4hPa South 1.8mph /  2.9km/h 5.6mph /  9km/h 89% 0.0in /  0mm WeatherDisplay:10.37 W/m2 FEW
16:09 -7.3 °F /  -21.8 °C -8.8 °F /  -22.7 °C 1025.6in /  34726.8hPa Calm   3.7mph /  6km/h 89% 0.0in /  0mm WeatherDisplay:10.37 W/m2 FEW
16:14 -7.4 °F /  -21.9 °C -8.9 °F /  -22.7 °C 1025.6in /  34726.8hPa Calm     89% 0.0in /  0mm WeatherDisplay:10.37 W/m2 FEW
16:20 -7.4 °F /  -21.9 °C -8.9 °F /  -22.7 °C 1025.6in /  34726.8hPa Calm     89% 0.0in /  0mm WeatherDisplay:10.37 W/m2 FEW
16:25 -7.4 °F /  -21.9 °C -8.9 °F /  -22.7 °C 1025.3in /  34716.7hPa SE 1.9mph /  3.1km/h 5.6mph /  9km/h 89% 0.0in /  0mm WeatherDisplay:10.37 W/m2 FEW
16:34 -7.4 °F /  -21.9 °C -8.9 °F /  -22.7 °C 1025.3in /  34716.7hPa SE 2.4mph /  3.9km/h 5.6mph /  9km/h 89% 0.0in /  0mm WeatherDisplay:10.37 W/m2 FEW
16:41 -7.4 °F /  -21.9 °C -8.9 °F /  -22.7 °C 1024.9in /  34703.1hPa SSE 1.1mph /  1.8km/h 11.1mph /  17.9km/h 89% 0.0in /  0mm WeatherDisplay:10.37 W/m2 FEW
16:46 -7.4 °F /  -21.9 °C -8.9 °F /  -22.7 °C 1024.9in /  34703.1hPa ESE 3.7mph /  6km/h 7.4mph /  11.9km/h 89% 0.0in /  0mm WeatherDisplay:10.37 W/m2 FEW
16:56 -7.4 °F /  -21.9 °C -8.9 °F /  -22.7 °C 1024.9in /  34703.1hPa SSE 1.0mph /  1.6km/h 3.7mph /  6km/h 89% 0.0in /  0mm WeatherDisplay:10.37 W/m2 FEW
17:01 -7.4 °F /  -21.9 °C -8.9 °F /  -22.7 °C 1024.9in /  34703.1hPa Calm   3.7mph /  6km/h 89% 0.0in /  0mm WeatherDisplay:10.37 W/m2 FEW
17:06 -7.4 °F /  -21.9 °C -8.9 °F /  -22.7 °C 1024.6in /  34693hPa SSE 5.6mph /  9km/h 14.8mph /  23.8km/h 89% 0.0in /  0mm WeatherDisplay:10.37 W/m2 FEW
17:11 -7.4 °F /  -21.9 °C -8.9 °F /  -22.7 °C 1024.6in /  34693hPa SSE 7.4mph /  11.9km/h 13.0mph /  20.9km/h 89% 0.0in /  0mm WeatherDisplay:10.37 W/m2 FEW
17:21 -7.4 °F /  -21.9 °C -8.9 °F /  -22.7 °C 1024.6in /  34693hPa East 6.4mph /  10.3km/h 14.8mph /  23.8km/h 89% 0.0in /  0mm WeatherDisplay:10.37 W/m2 FEW
17:29 -7.4 °F /  -21.9 °C -8.9 °F /  -22.7 °C 1024.3in /  34682.8hPa SE 4.5mph /  7.2km/h 11.1mph /  17.9km/h 89% 0.0in /  0mm WeatherDisplay:10.37 W/m2 FEW
17:35 -7.4 °F /  -21.9 °C -8.9 °F /  -22.7 °C 1024.3in /  34682.8hPa SE 3.7mph /  6km/h 14.8mph /  23.8km/h 89% 0.0in /  0mm WeatherDisplay:10.37 W/m2 FEW
17:40 -7.4 °F /  -21.9 °C -8.9 °F /  -22.7 °C 1024.3in /  34682.8hPa SE 0.8mph /  1.3km/h 5.6mph /  9km/h 89% 0.0in /  0mm WeatherDisplay:10.37 W/m2 FEW
17:47 -7.4 °F /  -21.9 °C -8.9 °F /  -22.7 °C 1024.3in /  34682.8hPa SE 3.1mph /  5km/h 5.6mph /  9km/h 89% 0.0in /  0mm WeatherDisplay:10.37 W/m2 FEW
17:52 -7.4 °F /  -21.9 °C -9.1 °F /  -22.8 °C 1023.9in /  34669.3hPa ESE 2.3mph /  3.7km/h 5.6mph /  9km/h 88% 0.0in /  0mm WeatherDisplay:10.37 W/m2 FEW
17:57 -7.4 °F /  -21.9 °C -8.9 °F /  -22.7 °C 1023.9in /  34669.3hPa SE 2.1mph /  3.4km/h 13.0mph /  20.9km/h 89% 0.0in /  0mm WeatherDisplay:10.37 W/m2 FEW
18:02 -7.4 °F /  -21.9 °C -8.9 °F /  -22.7 °C 1023.9in /  34669.3hPa SSE 6.3mph /  10.1km/h 8.0mph /  12.9km/h 89% 0.0in /  0mm WeatherDisplay:10.37 W/m2 FEW
18:09 -7.4 °F /  -21.9 °C -9.1 °F /  -22.8 °C 1023.6in /  34659.1hPa SE 3.7mph /  6km/h 11.1mph /  17.9km/h 88% 0.0in /  0mm WeatherDisplay:10.37 W/m2 FEW
18:15 -7.4 °F /  -21.9 °C -9.1 °F /  -22.8 °C 1023.6in /  34659.1hPa SE 2.9mph /  4.7km/h 5.6mph /  9km/h 88% 0.0in /  0mm WeatherDisplay:10.37 W/m2 FEW
18:20 -7.4 °F /  -21.9 °C -9.1 °F /  -22.8 °C 1023.6in /  34659.1hPa SE 2.7mph /  4.3km/h 5.6mph /  9km/h 88% 0.0in /  0mm WeatherDisplay:10.37 W/m2 FEW
18:25 -7.4 °F /  -21.9 °C -9.1 °F /  -22.8 °C 1023.6in /  34659.1hPa SE 1.1mph /  1.8km/h 4.8mph /  7.7km/h 88% 0.0in /  0mm WeatherDisplay:10.37 W/m2 FEW
18:30 -7.4 °F /  -21.9 °C -9.1 °F /  -22.8 °C 1023.6in /  34659.1hPa SSE 4.2mph /  6.8km/h 13.0mph /  20.9km/h 88% 0.0in /  0mm WeatherDisplay:10.37 W/m2 FEW
18:35 -7.3 °F /  -21.8 °C -9.0 °F /  -22.8 °C 1023.2in /  34645.6hPa SE 6.1mph /  9.8km/h 9.3mph /  15km/h 88% 0.0in /  0mm WeatherDisplay:10.37 W/m2 FEW
18:40 -7.3 °F /  -21.8 °C -9.0 °F /  -22.8 °C 1023.2in /  34645.6hPa SSW 1.6mph /  2.6km/h 5.6mph /  9km/h 88% 0.0in /  0mm WeatherDisplay:10.37 W/m2 FEW
18:45 -7.3 °F /  -21.8 °C -8.9 °F /  -22.7 °C 1022.9in /  34635.4hPa ESE 2.7mph /  4.3km/h 5.6mph /  9km/h 88% 0.0in /  0mm WeatherDisplay:10.37 W/m2 FEW
18:50 -7.3 °F /  -21.8 °C -8.9 °F /  -22.7 °C 1022.9in /  34635.4hPa South 3.5mph /  5.6km/h 7.4mph /  11.9km/h 88% 0.0in /  0mm WeatherDisplay:10.37 W/m2 FEW
18:55 -7.3 °F /  -21.8 °C -8.9 °F /  -22.7 °C 1022.9in /  34635.4hPa East 11.1mph /  17.9km/h 18.5mph /  29.8km/h 88% 0.0in /  0mm WeatherDisplay:10.37 W/m2 FEW
19:00 -7.3 °F /  -21.8 °C -9.0 °F /  -22.8 °C 1022.6in /  34625.2hPa Calm     88% 0.0in /  0mm WeatherDisplay:10.37 W/m2 FEW
19:05 -7.3 °F /  -21.8 °C -8.9 °F /  -22.7 °C 1022.6in /  34625.2hPa SE 3.1mph /  5km/h 7.4mph /  11.9km/h 88% 0.0in /  0mm WeatherDisplay:10.37 W/m2 FEW
19:10 -7.3 °F /  -21.8 °C -9.0 °F /  -22.8 °C 1022.6in /  34625.2hPa SSE 6.4mph /  10.3km/h 18.5mph /  29.8km/h 88% 0.0in /  0mm WeatherDisplay:10.37 W/m2 FEW
19:15 -7.3 °F /  -21.8 °C -9.0 °F /  -22.8 °C 1022.6in /  34625.2hPa SSW 4.5mph /  7.2km/h 7.4mph /  11.9km/h 88% 0.0in /  0mm WeatherDisplay:10.37 W/m2 FEW
19:25 -7.3 °F /  -21.8 °C -9.0 °F /  -22.8 °C 1022.6in /  34625.2hPa East 1.4mph /  2.3km/h 3.7mph /  6km/h 88% 0.0in /  0mm WeatherDisplay:10.37 W/m2 FEW
19:30 -7.3 °F /  -21.8 °C -9.0 °F /  -22.8 °C 1022.6in /  34625.2hPa South 3.4mph /  5.5km/h 5.6mph /  9km/h 88% 0.0in /  0mm WeatherDisplay:10.37 W/m2 FEW
19:35 -7.3 °F /  -21.8 °C -9.1 °F /  -22.8 °C 1022.2in /  34611.7hPa SE 3.5mph /  5.6km/h 5.6mph /  9km/h 87% 0.0in /  0mm WeatherDisplay:10.37 W/m2 FEW
19:40 -7.3 °F /  -21.8 °C -9.1 °F /  -22.8 °C 1022.2in /  34611.7hPa SSW 1.9mph /  3.1km/h 5.6mph /  9km/h 87% 0.0in /  0mm WeatherDisplay:10.37 W/m2 FEW
19:45 -7.3 °F /  -21.8 °C -9.0 °F /  -22.8 °C 1022.2in /  34611.7hPa SSE 5.3mph /  8.5km/h 11.1mph /  17.9km/h 88% 0.0in /  0mm WeatherDisplay:10.37 W/m2 FEW
19:50 -7.3 °F /  -21.8 °C -9.0 °F /  -22.8 °C 1022.2in /  34611.7hPa SSW 0.5mph /  0.8km/h 3.7mph /  6km/h 88% 0.0in /  0mm WeatherDisplay:10.37 W/m2 FEW
19:55 -7.3 °F /  -21.8 °C -9.0 °F /  -22.8 °C 1022.2in /  34611.7hPa SE 0.5mph /  0.8km/h 5.6mph /  9km/h 88% 0.0in /  0mm WeatherDisplay:10.37 W/m2 FEW
20:00 -7.3 °F /  -21.8 °C -9.0 °F /  -22.8 °C 1021.9in /  34601.5hPa ESE 4.2mph /  6.8km/h 14.8mph /  23.8km/h 88% 0.0in /  0mm WeatherDisplay:10.37 W/m2 FEW
20:05 -7.3 °F /  -21.8 °C -9.1 °F /  -22.8 °C 1021.9in /  34601.5hPa SSE 5.5mph /  8.9km/h 13.0mph /  20.9km/h 87% 0.0in /  0mm WeatherDisplay:10.37 W/m2 FEW
20:10 -7.4 °F /  -21.9 °C -9.2 °F /  -22.9 °C 1021.9in /  34601.5hPa SE 7.4mph /  11.9km/h 13.0mph /  20.9km/h 87% 0.0in /  0mm WeatherDisplay:10.37 W/m2 FEW
20:25 -7.4 °F /  -21.9 °C -9.1 °F /  -22.8 °C 1021.6in /  34591.4hPa SE 2.3mph /  3.7km/h 7.4mph /  11.9km/h 88% 0.0in /  0mm WeatherDisplay:10.37 W/m2 FEW
20:33 -7.4 °F /  -21.9 °C -9.1 °F /  -22.8 °C 1021.6in /  34591.4hPa SSW 0.5mph /  0.8km/h 3.7mph /  6km/h 88% 0.0in /  0mm WeatherDisplay:10.37 W/m2 FEW
20:38 -7.3 °F /  -21.8 °C -9.0 °F /  -22.8 °C 1021.2in /  34577.8hPa SE 0.2mph /  0.3km/h 5.6mph /  9km/h 88% 0.0in /  0mm WeatherDisplay:10.37 W/m2 FEW
20:46 -7.3 °F /  -21.8 °C -9.0 °F /  -22.8 °C 1021.2in /  34577.8hPa SSW 4.2mph /  6.8km/h 14.8mph /  23.8km/h 88% 0.0in /  0mm WeatherDisplay:10.37 W/m2 FEW
20:51 -7.4 °F /  -21.9 °C -9.2 °F /  -22.9 °C 1021.2in /  34577.8hPa Calm     87% 0.0in /  0mm WeatherDisplay:10.37 W/m2 FEW
20:56 -7.4 °F /  -21.9 °C -9.1 °F /  -22.8 °C 1021.2in /  34577.8hPa Calm     88% 0.0in /  0mm WeatherDisplay:10.37 W/m2 FEW
21:01 -7.3 °F /  -21.8 °C -9.0 °F /  -22.8 °C 1020.9in /  34567.7hPa SE 3.9mph /  6.3km/h 8.0mph /  12.9km/h 88% 0.0in /  0mm WeatherDisplay:10.37 W/m2 FEW
21:06 -7.3 °F /  -21.8 °C -9.0 °F /  -22.8 °C 1020.9in /  34567.7hPa SSE 3.5mph /  5.6km/h 7.4mph /  11.9km/h 88% 0.0in /  0mm WeatherDisplay:10.37 W/m2 FEW
21:11 -7.4 °F /  -21.9 °C -9.1 °F /  -22.8 °C 1020.9in /  34567.7hPa South 4.7mph /  7.6km/h 7.4mph /  11.9km/h 88% 0.0in /  0mm WeatherDisplay:10.37 W/m2 FEW
21:16 -7.4 °F /  -21.9 °C -9.1 °F /  -22.8 °C 1020.9in /  34567.7hPa ESE 4.8mph /  7.7km/h 7.4mph /  11.9km/h 88% 0.0in /  0mm WeatherDisplay:10.37 W/m2 FEW
21:21 -7.4 °F /  -21.9 °C -9.1 °F /  -22.8 °C 1020.9in /  34567.7hPa South 2.1mph /  3.4km/h 8.0mph /  12.9km/h 88% 0.0in /  0mm WeatherDisplay:10.37 W/m2 FEW
21:26 -7.4 °F /  -21.9 °C -9.1 °F /  -22.8 °C 1020.9in /  34567.7hPa SE 1.8mph /  2.9km/h 3.2mph /  5.1km/h 88% 0.0in /  0mm WeatherDisplay:10.37 W/m2 FEW
21:33 -7.4 °F /  -21.9 °C -9.1 °F /  -22.8 °C 1020.5in /  34554.1hPa SE 3.4mph /  5.5km/h 9.3mph /  15km/h 88% 0.0in /  0mm WeatherDisplay:10.37 W/m2 FEW
21:39 -7.5 °F /  -21.9 °C -9.2 °F /  -22.9 °C 1020.5in /  34554.1hPa SE 5.1mph /  8.2km/h 16.7mph /  26.9km/h 88% 0.0in /  0mm WeatherDisplay:10.37 W/m2 FEW
21:44 -7.5 °F /  -21.9 °C -9.2 °F /  -22.9 °C 1020.2in /  34544hPa SSE 1.3mph /  2.1km/h 5.6mph /  9km/h 88% 0.0in /  0mm WeatherDisplay:10.37 W/m2 FEW
21:51 -7.4 °F /  -21.9 °C -9.1 °F /  -22.8 °C 1020.2in /  34544hPa South 2.4mph /  3.9km/h 6.4mph /  10.3km/h 88% 0.0in /  0mm WeatherDisplay:10.37 W/m2 FEW
22:01 -7.5 °F /  -21.9 °C -9.2 °F /  -22.9 °C 1020.2in /  34544hPa SW 1.9mph /  3.1km/h 11.1mph /  17.9km/h 88% 0.0in /  0mm WeatherDisplay:10.37 W/m2 FEW
22:08 -7.6 °F /  -22 °C -9.2 °F /  -22.9 °C 1019.9in /  34533.8hPa South 1.0mph /  1.6km/h 8.0mph /  12.9km/h 88% 0.0in /  0mm WeatherDisplay:10.37 W/m2 FEW
22:13 -7.6 °F /  -22 °C -9.2 °F /  -22.9 °C 1019.9in /  34533.8hPa South 7.4mph /  11.9km/h 13.0mph /  20.9km/h 88% 0.0in /  0mm WeatherDisplay:10.37 W/m2 FEW
22:18 -7.6 °F /  -22 °C -9.2 °F /  -22.9 °C 1019.9in /  34533.8hPa SE 2.3mph /  3.7km/h 14.5mph /  23.3km/h 88% 0.0in /  0mm WeatherDisplay:10.37 W/m2 FEW
22:23 -7.6 °F /  -22 °C -9.3 °F /  -22.9 °C 1019.9in /  34533.8hPa Calm   5.6mph /  9km/h 87% 0.0in /  0mm WeatherDisplay:10.37 W/m2 FEW
22:29 -7.6 °F /  -22 °C -9.3 °F /  -22.9 °C 1019.5in /  34520.3hPa East 2.3mph /  3.7km/h 5.6mph /  9km/h 87% 0.0in /  0mm WeatherDisplay:10.37 W/m2 FEW
22:34 -7.6 °F /  -22 °C -9.3 °F /  -22.9 °C 1019.5in /  34520.3hPa SSW 1.8mph /  2.9km/h 7.4mph /  11.9km/h 87% 0.0in /  0mm WeatherDisplay:10.37 W/m2 FEW
22:46 -7.6 °F /  -22 °C -9.3 °F /  -22.9 °C 1019.2in /  34510.1hPa Calm   9.3mph /  15km/h 87% 0.0in /  0mm WeatherDisplay:10.37 W/m2 FEW
22:48 -7.6 °F /  -22 °C -9.3 °F /  -22.9 °C 1019.2in /  34510.1hPa SSE 1.6mph /  2.6km/h 11.1mph /  17.9km/h 87% 0.0in /  0mm WeatherDisplay:10.37 W/m2 FEW
22:49 -7.6 °F /  -22 °C -9.3 °F /  -22.9 °C 1019.2in /  34510.1hPa South 2.1mph /  3.4km/h 9.3mph /  15km/h 87% 0.0in /  0mm WeatherDisplay:10.37 W/m2 FEW
22:51 -7.6 °F /  -22 °C -9.2 °F /  -22.9 °C 1019.2in /  34510.1hPa Calm   7.4mph /  11.9km/h 88% 0.0in /  0mm WeatherDisplay:10.37 W/m2 FEW
22:52 -7.6 °F /  -22 °C -9.2 °F /  -22.9 °C 1019.2in /  34510.1hPa SSE 0.5mph /  0.8km/h 3.7mph /  6km/h 88% 0.0in /  0mm WeatherDisplay:10.37 W/m2 FEW
22:53 -7.5 °F /  -21.9 °C -9.2 °F /  -22.9 °C 1019.2in /  34510.1hPa ENE 4.0mph /  6.4km/h 9.3mph /  15km/h 88% 0.0in /  0mm WeatherDisplay:10.37 W/m2 FEW
22:54 -7.5 °F /  -21.9 °C -9.2 °F /  -22.9 °C 1019.2in /  34510.1hPa ENE 1.6mph /  2.6km/h 9.3mph /  15km/h 88% 0.0in /  0mm WeatherDisplay:10.37 W/m2 FEW
22:59 -7.5 °F /  -21.9 °C -9.2 °F /  -22.9 °C 1019.2in /  34510.1hPa South 3.9mph /  6.3km/h 18.5mph /  29.8km/h 88% 0.0in /  0mm WeatherDisplay:10.37 W/m2 FEW
23:00 -7.5 °F /  -21.9 °C -9.2 °F /  -22.9 °C 1019.2in /  34510.1hPa South 1.4mph /  2.3km/h 18.5mph /  29.8km/h 88% 0.0in /  0mm WeatherDisplay:10.37 W/m2 FEW
23:06 -7.5 °F /  -21.9 °C -9.3 °F /  -22.9 °C 1019.2in /  34510.1hPa SE 5.1mph /  8.2km/h 13.0mph /  20.9km/h 87% 0.0in /  0mm WeatherDisplay:10.37 W/m2 FEW
23:07 -7.5 °F /  -21.9 °C -9.3 °F /  -22.9 °C 1019.2in /  34510.1hPa SE 6.0mph /  9.7km/h 13.0mph /  20.9km/h 87% 0.0in /  0mm WeatherDisplay:10.37 W/m2 FEW
23:12 -7.5 °F /  -21.9 °C -9.2 °F /  -22.9 °C 1018.8in /  34496.6hPa ESE 2.1mph /  3.4km/h 5.6mph /  9km/h 88% 0.0in /  0mm WeatherDisplay:10.37 W/m2 FEW
23:14 -7.5 °F /  -21.9 °C -9.2 °F /  -22.9 °C 1018.8in /  34496.6hPa SSE 7.2mph /  11.6km/h 9.3mph /  15km/h 88% 0.0in /  0mm WeatherDisplay:10.37 W/m2 FEW
23:21 -7.5 °F /  -21.9 °C -9.2 °F /  -22.9 °C 1018.8in /  34496.6hPa Calm     88% 0.0in /  0mm WeatherDisplay:10.37 W/m2 FEW
23:23 -7.5 °F /  -21.9 °C -9.2 °F /  -22.9 °C 1018.5in /  34486.4hPa SE 3.4mph /  5.5km/h 3.4mph /  5.5km/h 88% 0.0in /  0mm WeatherDisplay:10.37 W/m2 FEW
23:28 -7.5 °F /  -21.9 °C -9.2 °F /  -22.9 °C 1018.8in /  34496.6hPa SSE 2.9mph /  4.7km/h 7.4mph /  11.9km/h 88% 0.0in /  0mm WeatherDisplay:10.37 W/m2 FEW
23:33 -7.4 °F /  -21.9 °C -9.1 °F /  -22.8 °C 1018.5in /  34486.4hPa SSE 2.6mph /  4.2km/h 3.2mph /  5.1km/h 88% 0.0in /  0mm WeatherDisplay:10.37 W/m2 FEW
23:40 -7.4 °F /  -21.9 °C -9.1 °F /  -22.8 °C 1018.5in /  34486.4hPa SSE 5.6mph /  9km/h 14.8mph /  23.8km/h 88% 0.0in /  0mm WeatherDisplay:10.37 W/m2 FEW
23:50 -7.5 °F /  -21.9 °C -9.2 °F /  -22.9 °C 1018.2in /  34476.3hPa SSE 3.9mph /  6.3km/h 7.4mph /  11.9km/h 88% 0.0in /  0mm WeatherDisplay:10.37 W/m2 FEW
23:58 -7.5 °F /  -21.9 °C -9.3 °F /  -22.9 °C 1018.2in /  34476.3hPa SSE 6.6mph /  10.6km/h 13.0mph /  20.9km/h 87% 0.0in /  0mm WeatherDisplay:10.37 W/m2 FEW
Tuulensuunkaari, Veikkola, Suomi
Compliments of Weather Underground - 2.25 mb